Latest Weather Observations for Lord Howe Island Windy Point

IDN60801

Issued at 10:02 pm EST Friday 29 April 2016 (issued every 30 minutes, with the page automatically refreshed every 10 minutes)

About weather observations | Map of weather stations | Latest weather observations for NSW | Other Formats
Station Details ID: 200715 Name: LORD HOWE ISLAND WINDY POINT Lat: -31.54 Lon: 159.07 Height: 4.0 m
Data from the previous 72 hours. | See also: Recent months for locations in New South Wales
Date/Time
EST
Temp
°C
App
Temp
°C
Dew
Point
Rel
Hum
%
Delta-T
°C
Wind Press
QNH
hPa
Press
MSL
hPa
Rain
since 9 am
mm
Dir
 
Spd
km/h
Gust
km/h
Spd
kts
Gust
kts
29/10:00pm - - - - - E 13 20 7 11 - - -
29/09:30pm - - - - - ENE 15 26 8 14 - - -
29/09:00pm - - - - - ENE 13 22 7 12 - - -
29/08:30pm - - - - - ENE 13 28 7 15 - - -
29/08:00pm - - - - - ENE 24 35 13 19 - - -
29/07:30pm - - - - - ENE 24 32 13 17 - - -
29/07:00pm - - - - - ENE 24 32 13 17 - - -
29/06:30pm - - - - - ENE 20 26 11 14 - - -
29/06:00pm - - - - - ENE 19 24 10 13 - - -
29/05:30pm - - - - - ENE 19 26 10 14 - - -
29/05:00pm - - - - - ENE 20 28 11 15 - - -
29/04:30pm - - - - - ENE 19 24 10 13 - - -
29/04:00pm - - - - - ENE 20 28 11 15 - - -
29/03:30pm - - - - - ENE 20 28 11 15 - - -
29/03:00pm - - - - - ENE 19 28 10 15 - - -
29/02:30pm - - - - - ENE 19 26 10 14 - - -
29/02:00pm - - - - - ENE 22 28 12 15 - - -
29/01:30pm - - - - - ENE 20 28 11 15 - - -
29/01:00pm - - - - - ENE 20 26 11 14 - - -
29/12:30pm - - - - - E 20 28 11 15 - - -
29/12:00pm - - - - - ENE 22 30 12 16 - - -
29/11:30am - - - - - E 20 26 11 14 - - -
29/11:00am - - - - - ENE 20 26 11 14 - - -
29/10:30am - - - - - ENE 20 24 11 13 - - -
29/10:00am - - - - - ENE 19 24 10 13 - - -
29/09:30am - - - - - ENE 19 24 10 13 - - -
29/09:00am - - - - - E 20 24 11 13 - - -
29/08:30am - - - - - E 17 20 9 11 - - -
29/08:00am - - - - - ENE 17 20 9 11 - - -
29/07:30am - - - - - E 17 24 9 13 - - -
29/07:00am - - - - - ENE 19 22 10 12 - - -
29/06:30am - - - - - ENE 17 20 9 11 - - -
29/06:00am - - - - - ENE 19 22 10 12 - - -
29/05:30am - - - - - ENE 17 20 9 11 - - -
29/05:00am - - - - - ENE 19 22 10 12 - - -
29/04:30am - - - - - ENE 17 22 9 12 - - -
29/04:00am - - - - - NE 15 19 8 10 - - -
29/03:30am - - - - - ENE 11 15 6 8 - - -
29/03:00am - - - - - ENE 11 19 6 10 - - -
29/02:30am - - - - - ENE 13 17 7 9 - - -
29/02:00am - - - - - ENE 13 20 7 11 - - -
29/01:30am - - - - - ENE 4 6 2 3 - - -
29/01:00am - - - - - N 11 20 6 11 - - -
29/12:30am - - - - - ENE 17 26 9 14 - - -
29/12:00am - - - - - ENE 11 15 6 8 - - -
 
Date/Time
EST
Temp
°C
App
Temp
°C
Dew
Point
Rel
Hum
%
Delta-T
°C
Wind Press
QNH
hPa
Press
MSL
hPa
Rain
since 9 am
mm
Dir
 
Spd
km/h
Gust
km/h
Spd
kts
Gust
kts
28/11:30pm - - - - - NE 11 15 6 8 - - -
28/11:00pm - - - - - ENE 13 20 7 11 - - -
28/10:30pm - - - - - NE 11 17 6 9 - - -
28/10:00pm - - - - - ENE 17 20 9 11 - - -
28/09:30pm - - - - - ENE 17 22 9 12 - - -
28/09:00pm - - - - - ENE 17 20 9 11 - - -
28/08:30pm - - - - - ENE 19 24 10 13 - - -
28/08:00pm - - - - - ENE 20 28 11 15 - - -
28/07:30pm - - - - - ENE 20 26 11 14 - - -
28/07:00pm - - - - - E 24 30 13 16 - - -
28/06:30pm - - - - - E 22 28 12 15 - - -
28/06:00pm - - - - - ENE 22 28 12 15 - - -
28/05:30pm - - - - - ENE 24 30 13 16 - - -
28/05:00pm - - - - - ENE 22 32 12 17 - - -
28/04:30pm - - - - - ENE 20 30 11 16 - - -
28/04:00pm - - - - - E 26 32 14 17 - - -
28/03:30pm - - - - - ENE 24 32 13 17 - - -
28/03:00pm - - - - - ENE 22 28 12 15 - - -
28/02:30pm - - - - - E 24 30 13 16 - - -
28/02:00pm - - - - - E 24 30 13 16 - - -
28/01:30pm - - - - - ENE 22 30 12 16 - - -
28/01:00pm - - - - - ENE 30 41 16 22 - - -
28/12:30pm - - - - - ENE 24 35 13 19 - - -
28/12:00pm - - - - - ENE 26 33 14 18 - - -
28/11:30am - - - - - ENE 26 33 14 18 - - -
28/11:00am - - - - - ENE 26 32 14 17 - - -
28/10:30am - - - - - ENE 28 35 15 19 - - -
28/10:00am - - - - - ENE 28 35 15 19 - - -
28/09:30am - - - - - ENE 28 37 15 20 - - -
28/09:00am - - - - - ENE 32 41 17 22 - - -
28/08:30am - - - - - ENE 32 39 17 21 - - -
28/08:00am - - - - - ENE 32 41 17 22 - - -
28/07:30am - - - - - ENE 33 44 18 24 - - -
28/07:00am - - - - - ENE 32 43 17 23 - - -
28/06:30am - - - - - ENE 32 43 17 23 - - -
28/06:00am - - - - - ENE 30 37 16 20 - - -
28/05:30am - - - - - ENE 30 37 16 20 - - -
28/05:00am - - - - - ENE 28 43 15 23 - - -
28/04:30am - - - - - ENE 26 43 14 23 - - -
28/04:00am - - - - - ENE 30 41 16 22 - - -
28/03:30am - - - - - ENE 26 35 14 19 - - -
28/03:00am - - - - - ENE 24 35 13 19 - - -
28/02:30am - - - - - ENE 24 37 13 20 - - -
28/02:00am - - - - - ENE 26 35 14 19 - - -
28/01:30am - - - - - ENE 30 44 16 24 - - -
28/01:00am - - - - - ENE 24 39 13 21 - - -
28/12:30am - - - - - ENE 22 33 12 18 - - -
28/12:00am - - - - - ENE 22 30 12 16 - - -
 
Date/Time
EST
Temp
°C
App
Temp
°C
Dew
Point
Rel
Hum
%
Delta-T
°C
Wind Press
QNH
hPa
Press
MSL
hPa
Rain
since 9 am
mm
Dir
 
Spd
km/h
Gust
km/h
Spd
kts
Gust
kts
27/11:30pm - - - - - ENE 22 30 12 16 - - -
27/11:00pm - - - - - ENE 24 33 13 18 - - -
27/10:30pm - - - - - ENE 28 33 15 18 - - -
27/10:00pm - - - - - ENE 26 35 14 19 - - -
27/09:30pm - - - - - ENE 28 35 15 19 - - -
27/09:00pm - - - - - ENE 32 39 17 21 - - -
27/08:30pm - - - - - ENE 32 41 17 22 - - -
27/08:00pm - - - - - ENE 32 43 17 23 - - -
27/07:30pm - - - - - ENE 30 39 16 21 - - -
27/07:00pm - - - - - ENE 30 41 16 22 - - -
27/06:30pm - - - - - ENE 30 44 16 24 - - -
27/06:00pm - - - - - ENE 30 39 16 21 - - -
27/05:30pm - - - - - ENE 28 41 15 22 - - -
27/05:00pm - - - - - ENE 28 44 15 24 - - -
27/04:30pm - - - - - ENE 24 32 13 17 - - -
27/04:00pm - - - - - ENE 28 33 15 18 - - -
27/03:30pm - - - - - ENE 24 33 13 18 - - -
27/03:00pm - - - - - E 28 35 15 19 - - -
27/02:30pm - - - - - ENE 30 39 16 21 - - -
27/02:00pm - - - - - ENE 26 32 14 17 - - -
27/01:30pm - - - - - ENE 28 37 15 20 - - -
27/01:00pm - - - - - ENE 26 35 14 19 - - -
27/12:30pm - - - - - ENE 30 37 16 20 - - -
27/12:00pm - - - - - ENE 28 37 15 20 - - -
27/11:30am - - - - - ENE 30 35 16 19 - - -
27/11:00am - - - - - ENE 30 35 16 19 - - -
27/10:30am - - - - - ENE 28 35 15 19 - - -
27/10:00am - - - - - ENE 28 37 15 20 - - -
27/09:30am - - - - - E 26 35 14 19 - - -
27/09:00am - - - - - E 26 33 14 18 - - -
27/08:30am - - - - - E 26 35 14 19 - - -
27/08:00am - - - - - E 32 39 17 21 - - -
27/07:30am - - - - - E 30 39 16 21 - - -
27/07:00am - - - - - E 28 33 15 18 - - -
27/06:30am - - - - - E 24 33 13 18 - - -
27/06:00am - - - - - E 28 35 15 19 - - -
27/05:30am - - - - - E 32 39 17 21 - - -
27/05:00am - - - - - E 32 39 17 21 - - -
27/04:30am - - - - - E 32 41 17 22 - - -
27/04:00am - - - - - ESE 28 37 15 20 - - -
27/03:30am - - - - - E 35 41 19 22 - - -
27/03:00am - - - - - E 32 41 17 22 - - -
27/02:30am - - - - - ESE 32 39 17 21 - - -
27/02:00am - - - - - ESE 32 39 17 21 - - -
27/01:30am - - - - - E 33 41 18 22 - - -
27/01:00am - - - - - ESE 33 41 18 22 - - -
27/12:30am - - - - - E 35 43 19 23 - - -
27/12:00am - - - - - ESE 30 41 16 22 - - -
 
Date/Time
EST
Temp
°C
App
Temp
°C
Dew
Point
Rel
Hum
%
Delta-T
°C
Wind Press
QNH
hPa
Press
MSL
hPa
Rain
since 9 am
mm
Dir
 
Spd
km/h
Gust
km/h
Spd
kts
Gust
kts
26/11:30pm - - - - - ESE 33 41 18 22 - - -
26/11:00pm - - - - - ESE 20 33 11 18 - - -
26/10:30pm - - - - - ESE 22 33 12 18 - - -

Other Formats:

Comma delimited format used in spreadsheet applications
http://www.bom.gov.au/fwo/IDN60801/IDN60801.95995.axf

JavaScript Object Notation format (JSON) in row-major order
http://www.bom.gov.au/fwo/IDN60801/IDN60801.95995.json